sensor_id;sensor_type;location;lat;lon;timestamp;pressure;altitude;pressure_sealevel;temperature;humidity
52651;BME280;38537;47.226;39.702;2023-05-03T00:00:38;101473.97;;;11.30;65.51
52651;BME280;38537;47.226;39.702;2023-05-03T00:03:05;101505.84;;;11.39;65.90
52651;BME280;38537;47.226;39.702;2023-05-03T00:05:32;101475.44;;;11.17;65.69
52651;BME280;38537;47.226;39.702;2023-05-03T00:08:00;101503.63;;;11.31;66.40
52651;BME280;38537;47.226;39.702;2023-05-03T00:10:28;101504.19;;;11.28;66.43
52651;BME280;38537;47.226;39.702;2023-05-03T00:12:55;101506.47;;;11.21;66.11
52651;BME280;38537;47.226;39.702;2023-05-03T00:15:23;101511.78;;;11.12;66.08
52651;BME280;38537;47.226;39.702;2023-05-03T00:17:50;101486.13;;;11.00;66.58
52651;BME280;38537;47.226;39.702;2023-05-03T00:20:17;101514.34;;;10.98;66.91
52651;BME280;38537;47.226;39.702;2023-05-03T00:22:46;101518.56;;;10.91;66.72
52651;BME280;38537;47.226;39.702;2023-05-03T00:25:13;101502.38;;;10.78;67.13
52651;BME280;38537;47.226;39.702;2023-05-03T00:27:41;101514.38;;;10.83;67.15
52651;BME280;38537;47.226;39.702;2023-05-03T00:30:09;101497.63;;;10.73;66.83
52651;BME280;38537;47.226;39.702;2023-05-03T00:32:36;101503.78;;;10.75;67.02
52651;BME280;38537;47.226;39.702;2023-05-03T00:35:04;101502.66;;;10.76;66.60
52651;BME280;38537;47.226;39.702;2023-05-03T00:37:32;101505.19;;;10.73;66.52
52651;BME280;38537;47.226;39.702;2023-05-03T00:39:59;101518.59;;;10.71;66.91
52651;BME280;38537;47.226;39.702;2023-05-03T00:42:29;101487.88;;;10.50;66.62
52651;BME280;38537;47.226;39.702;2023-05-03T00:44:56;101502.97;;;10.54;66.72
52651;BME280;38537;47.226;39.702;2023-05-03T00:47:23;101498.47;;;10.43;66.87
52651;BME280;38537;47.226;39.702;2023-05-03T00:49:51;101535.63;;;10.49;66.93
52651;BME280;38537;47.226;39.702;2023-05-03T00:52:18;101517.78;;;10.35;66.94
52651;BME280;38537;47.226;39.702;2023-05-03T00:54:45;101515.25;;;10.28;66.98
52651;BME280;38537;47.226;39.702;2023-05-03T00:57:13;101517.47;;;10.26;67.03
52651;BME280;38537;47.226;39.702;2023-05-03T00:59:41;101505.72;;;10.14;67.43
52651;BME280;38537;47.226;39.702;2023-05-03T01:02:08;101518.56;;;10.15;67.27
52651;BME280;38537;47.226;39.702;2023-05-03T01:04:36;101498.16;;;9.99;67.60
52651;BME280;38537;47.226;39.702;2023-05-03T01:13:05;101527.44;;;9.96;67.48
52651;BME280;38537;47.226;39.702;2023-05-03T01:18:23;101529.97;;;9.93;67.67
52651;BME280;38537;47.226;39.702;2023-05-03T01:20:52;101532.75;;;9.93;67.94
52651;BME280;38537;47.226;39.702;2023-05-03T01:23:32;101537.47;;;9.97;67.37
52651;BME280;38537;47.226;39.702;2023-05-03T01:26:24;101537.22;;;9.99;67.47
52651;BME280;38537;47.226;39.702;2023-05-03T01:28:52;101521.84;;;9.86;67.09
52651;BME280;38537;47.226;39.702;2023-05-03T01:31:51;101545.31;;;10.06;67.35
52651;BME280;38537;47.226;39.702;2023-05-03T01:34:53;101542.53;;;10.06;66.79
52651;BME280;38537;47.226;39.702;2023-05-03T01:37:21;101557.56;;;10.00;66.29
52651;BME280;38537;47.226;39.702;2023-05-03T01:40:00;101543.63;;;10.00;66.09
52651;BME280;38537;47.226;39.702;2023-05-03T01:42:30;101540.00;;;9.94;66.64
52651;BME280;38537;47.226;39.702;2023-05-03T01:44:58;101557.88;;;10.03;66.16
52651;BME280;38537;47.226;39.702;2023-05-03T01:47:27;101547.81;;;9.97;66.42
52651;BME280;38537;47.226;39.702;2023-05-03T01:49:54;101545.00;;;9.97;65.82
52651;BME280;38537;47.226;39.702;2023-05-03T01:52:23;101561.78;;;10.07;65.99
52651;BME280;38537;47.226;39.702;2023-05-03T01:54:50;101554.56;;;10.11;65.89
52651;BME280;38537;47.226;39.702;2023-05-03T01:57:17;101550.63;;;10.07;65.27
52651;BME280;38537;47.226;39.702;2023-05-03T01:59:45;101567.97;;;10.14;65.45
52651;BME280;38537;47.226;39.702;2023-05-03T02:02:12;101546.44;;;9.94;65.24
52651;BME280;38537;47.226;39.702;2023-05-03T02:04:40;101538.59;;;9.86;64.96
52651;BME280;38537;47.226;39.702;2023-05-03T02:07:07;101563.44;;;9.98;65.02
52651;BME280;38537;47.226;39.702;2023-05-03T02:09:35;101568.47;;;10.01;64.81
52651;BME280;38537;47.226;39.702;2023-05-03T02:12:02;101580.22;;;10.13;64.51
52651;BME280;38537;47.226;39.702;2023-05-03T02:14:29;101583.31;;;10.17;64.99
52651;BME280;38537;47.226;39.702;2023-05-03T02:16:58;101584.44;;;10.21;64.44
52651;BME280;38537;47.226;39.702;2023-05-03T02:19:26;101595.91;;;10.24;64.32
52651;BME280;38537;47.226;39.702;2023-05-03T02:21:55;101604.28;;;10.24;64.08
52651;BME280;38537;47.226;39.702;2023-05-03T02:24:23;101600.66;;;10.24;64.11
52651;BME280;38537;47.226;39.702;2023-05-03T02:26:50;101603.16;;;10.25;63.79
52651;BME280;38537;47.226;39.702;2023-05-03T02:29:17;101599.75;;;10.18;63.89
52651;BME280;38537;47.226;39.702;2023-05-03T02:31:45;101602.00;;;10.16;64.02
52651;BME280;38537;47.226;39.702;2023-05-03T02:34:12;101613.47;;;10.20;63.66
52651;BME280;38537;47.226;39.702;2023-05-03T02:36:40;101598.63;;;10.09;63.41
52651;BME280;38537;47.226;39.702;2023-05-03T02:39:07;101616.81;;;10.17;63.78
52651;BME280;38537;47.226;39.702;2023-05-03T02:41:34;101617.06;;;10.10;63.98
52651;BME280;38537;47.226;39.702;2023-05-03T02:44:02;101619.31;;;10.13;63.79
52651;BME280;38537;47.226;39.702;2023-05-03T02:46:30;101618.72;;;10.06;63.65
52651;BME280;38537;47.226;39.702;2023-05-03T02:48:57;101638.00;;;10.18;63.84
52651;BME280;38537;47.226;39.702;2023-05-03T02:51:25;101622.91;;;10.09;63.28
52651;BME280;38537;47.226;39.702;2023-05-03T02:53:52;101626.81;;;10.08;63.61
52651;BME280;38537;47.226;39.702;2023-05-03T02:56:20;101629.06;;;10.11;63.47
52651;BME280;38537;47.226;39.702;2023-05-03T02:58:48;101641.09;;;10.16;63.70
52651;BME280;38537;47.226;39.702;2023-05-03T03:01:15;101627.94;;;10.12;63.58
52651;BME280;38537;47.226;39.702;2023-05-03T03:03:42;101643.91;;;10.21;63.58
52651;BME280;38537;47.226;39.702;2023-05-03T03:06:10;101644.41;;;10.18;63.26
52651;BME280;38537;47.226;39.702;2023-05-03T03:08:38;101643.59;;;10.18;63.49
52651;BME280;38537;47.226;39.702;2023-05-03T03:11:06;101647.78;;;10.15;63.61
52651;BME280;38537;47.226;39.702;2023-05-03T03:13:34;101643.88;;;10.16;63.91
52651;BME280;38537;47.226;39.702;2023-05-03T03:16:07;101654.22;;;10.16;63.59
52651;BME280;38537;47.226;39.702;2023-05-03T03:18:35;101642.19;;;10.10;63.54
52651;BME280;38537;47.226;39.702;2023-05-03T03:21:03;101643.31;;;10.14;63.28
52651;BME280;38537;47.226;39.702;2023-05-03T03:23:31;101618.66;;;9.96;63.53
52651;BME280;38537;47.226;39.702;2023-05-03T03:25:59;101636.03;;;10.08;63.41
52651;BME280;38537;47.226;39.702;2023-05-03T03:28:27;101661.47;;;10.17;63.29
52651;BME280;38537;47.226;39.702;2023-05-03T03:30:57;101637.16;;;10.12;63.32
52651;BME280;38537;47.226;39.702;2023-05-03T03:33:25;101641.38;;;10.20;62.83
52651;BME280;38537;47.226;39.702;2023-05-03T03:35:57;101643.94;;;10.26;62.34
52651;BME280;38537;47.226;39.702;2023-05-03T03:38:29;101638.09;;;10.33;62.57
52651;BME280;38537;47.226;39.702;2023-05-03T03:41:01;101657.41;;;10.55;62.21
52651;BME280;38537;47.226;39.702;2023-05-03T03:43:29;101649.03;;;10.60;61.49
52651;BME280;38537;47.226;39.702;2023-05-03T03:45:57;101653.50;;;10.66;61.47
52651;BME280;38537;47.226;39.702;2023-05-03T03:48:24;101660.22;;;10.90;61.34
52651;BME280;38537;47.226;39.702;2023-05-03T03:50:52;101657.44;;;10.95;60.82
52651;BME280;38537;47.226;39.702;2023-05-03T03:53:24;101642.34;;;10.96;60.43
52651;BME280;38537;47.226;39.702;2023-05-03T03:55:51;101673.94;;;11.22;59.97
52651;BME280;38537;47.226;39.702;2023-05-03T03:58:19;101661.34;;;11.25;60.05
52651;BME280;38537;47.226;39.702;2023-05-03T04:00:46;101672.50;;;11.45;59.60
52651;BME280;38537;47.226;39.702;2023-05-03T04:03:17;101677.22;;;11.65;59.79
52651;BME280;38537;47.226;39.702;2023-05-03T04:05:45;101683.06;;;11.74;59.04
52651;BME280;38537;47.226;39.702;2023-05-03T04:08:18;101680.56;;;11.87;58.42
52651;BME280;38537;47.226;39.702;2023-05-03T04:10:45;101682.72;;;12.00;57.52
52651;BME280;38537;47.226;39.702;2023-05-03T04:13:12;101662.88;;;11.97;56.43
52651;BME280;38537;47.226;39.702;2023-05-03T04:15:40;101672.88;;;12.13;56.43
52651;BME280;38537;47.226;39.702;2023-05-03T04:18:07;101685.72;;;12.24;55.47
52651;BME280;38537;47.226;39.702;2023-05-03T04:20:37;101680.03;;;12.34;54.85
52651;BME280;38537;47.226;39.702;2023-05-03T04:23:06;101685.88;;;12.48;55.32
52651;BME280;38537;47.226;39.702;2023-05-03T04:25:34;101657.59;;;12.45;56.76
52651;BME280;38537;47.226;39.702;2023-05-03T04:28:11;101689.00;;;12.81;57.73
52651;BME280;38537;47.226;39.702;2023-05-03T04:30:42;101688.16;;;12.85;55.82
52651;BME280;38537;47.226;39.702;2023-05-03T04:33:12;101674.41;;;12.84;53.36
52651;BME280;38537;47.226;39.702;2023-05-03T04:35:40;101694.81;;;12.94;53.56
52651;BME280;38537;47.226;39.702;2023-05-03T04:38:11;101680.75;;;12.99;52.59
52651;BME280;38537;47.226;39.702;2023-05-03T04:40:40;101696.38;;;13.11;52.13
52651;BME280;38537;47.226;39.702;2023-05-03T04:43:08;101677.31;;;13.08;52.42
52651;BME280;38537;47.226;39.702;2023-05-03T04:45:40;101684.28;;;13.20;52.58
52651;BME280;38537;47.226;39.702;2023-05-03T04:48:12;101699.56;;;13.33;51.95
52651;BME280;38537;47.226;39.702;2023-05-03T04:50:40;101683.34;;;13.30;52.13
52651;BME280;38537;47.226;39.702;2023-05-03T04:53:09;101697.81;;;13.42;50.79
52651;BME280;38537;47.226;39.702;2023-05-03T04:55:40;101694.41;;;13.45;52.35
52651;BME280;38537;47.226;39.702;2023-05-03T04:58:08;101687.88;;;13.55;52.65
52651;BME280;38537;47.226;39.702;2023-05-03T05:00:37;101703.75;;;13.64;51.13
52651;BME280;38537;47.226;39.702;2023-05-03T05:03:10;101683.69;;;13.52;49.84
52651;BME280;38537;47.226;39.702;2023-05-03T05:05:38;101701.28;;;13.63;49.42
52651;BME280;38537;47.226;39.702;2023-05-03T05:08:07;101696.13;;;13.70;51.80
52651;BME280;38537;47.226;39.702;2023-05-03T05:10:40;101715.63;;;13.85;51.37
52651;BME280;38537;47.226;39.702;2023-05-03T05:13:09;101681.16;;;13.80;52.22
52651;BME280;38537;47.226;39.702;2023-05-03T05:15:36;101709.00;;;14.00;53.47
52651;BME280;38537;47.226;39.702;2023-05-03T05:18:04;101714.13;;;14.17;53.12
52651;BME280;38537;47.226;39.702;2023-05-03T05:20:34;101701.69;;;14.23;53.38
52651;BME280;38537;47.226;39.702;2023-05-03T05:23:02;101704.66;;;14.31;53.07
52651;BME280;38537;47.226;39.702;2023-05-03T05:25:29;101700.09;;;14.40;53.14
52651;BME280;38537;47.226;39.702;2023-05-03T05:27:57;101703.75;;;14.41;51.45
52651;BME280;38537;47.226;39.702;2023-05-03T05:30:24;101688.25;;;14.44;53.11
52651;BME280;38537;47.226;39.702;2023-05-03T05:32:52;101676.84;;;14.54;53.60
52651;BME280;38537;47.226;39.702;2023-05-03T05:35:19;101702.25;;;14.67;51.30
52651;BME280;38537;47.226;39.702;2023-05-03T05:37:46;101702.38;;;14.76;53.39
52651;BME280;38537;47.226;39.702;2023-05-03T05:40:14;101700.88;;;14.84;53.45
52651;BME280;38537;47.226;39.702;2023-05-03T05:42:46;101692.91;;;14.91;53.16
52651;BME280;38537;47.226;39.702;2023-05-03T05:45:16;101694.69;;;15.00;53.05
52651;BME280;38537;47.226;39.702;2023-05-03T05:47:44;101676.22;;;14.94;52.04
52651;BME280;38537;47.226;39.702;2023-05-03T05:50:11;101694.44;;;15.16;52.29
52651;BME280;38537;47.226;39.702;2023-05-03T05:52:51;101693.84;;;15.19;52.06
52651;BME280;38537;47.226;39.702;2023-05-03T05:55:23;101688.81;;;15.16;51.30
52651;BME280;38537;47.226;39.702;2023-05-03T05:57:51;101684.88;;;15.17;52.17
52651;BME280;38537;47.226;39.702;2023-05-03T06:00:22;101679.16;;;15.22;52.56
52651;BME280;38537;47.226;39.702;2023-05-03T06:02:50;101689.19;;;15.28;50.45
52651;BME280;38537;47.226;39.702;2023-05-03T06:05:20;101675.59;;;15.16;50.59
52651;BME280;38537;47.226;39.702;2023-05-03T06:07:48;101684.25;;;15.20;49.02
52651;BME280;38537;47.226;39.702;2023-05-03T06:10:16;101686.38;;;15.28;50.90
52651;BME280;38537;47.226;39.702;2023-05-03T06:12:47;101692.22;;;15.31;49.48
52651;BME280;38537;47.226;39.702;2023-05-03T06:15:24;101683.66;;;15.23;48.71
52651;BME280;38537;47.226;39.702;2023-05-03T06:17:52;101690.72;;;15.20;48.28
52651;BME280;38537;47.226;39.702;2023-05-03T06:20:20;101683.34;;;15.24;49.75
52651;BME280;38537;47.226;39.702;2023-05-03T06:22:49;101683.47;;;15.33;51.19
52651;BME280;38537;47.226;39.702;2023-05-03T06:25:16;101679.53;;;15.34;51.34
52651;BME280;38537;47.226;39.702;2023-05-03T06:27:48;101687.03;;;15.38;48.20
52651;BME280;38537;47.226;39.702;2023-05-03T06:30:18;101685.34;;;15.37;47.43
52651;BME280;38537;47.226;39.702;2023-05-03T06:32:47;101688.66;;;15.26;46.03
52651;BME280;38537;47.226;39.702;2023-05-03T06:35:16;101693.84;;;15.19;46.54
52651;BME280;38537;47.226;39.702;2023-05-03T06:37:45;101697.41;;;15.24;46.54
52651;BME280;38537;47.226;39.702;2023-05-03T06:40:13;101666.84;;;15.18;47.91
52651;BME280;38537;47.226;39.702;2023-05-03T06:42:41;101684.75;;;15.40;48.06
52651;BME280;38537;47.226;39.702;2023-05-03T06:45:17;101693.09;;;15.46;46.69
52651;BME280;38537;47.226;39.702;2023-05-03T06:47:45;101667.53;;;15.42;49.18
52651;BME280;38537;47.226;39.702;2023-05-03T06:50:12;101680.13;;;15.63;48.24
52651;BME280;38537;47.226;39.702;2023-05-03T06:52:43;101674.75;;;15.48;45.60
52651;BME280;38537;47.226;39.702;2023-05-03T06:55:10;101680.91;;;15.50;46.86
52651;BME280;38537;47.226;39.702;2023-05-03T06:57:39;101676.59;;;15.39;44.33
52651;BME280;38537;47.226;39.702;2023-05-03T07:00:07;101682.97;;;15.31;43.00
52651;BME280;38537;47.226;39.702;2023-05-03T07:02:35;101668.44;;;15.24;44.92
52651;BME280;38537;47.226;39.702;2023-05-03T07:05:04;101681.84;;;15.46;44.74
52651;BME280;38537;47.226;39.702;2023-05-03T07:07:32;101683.81;;;15.45;42.86
52651;BME280;38537;47.226;39.702;2023-05-03T07:09:59;101684.84;;;15.35;41.97
52651;BME280;38537;47.226;39.702;2023-05-03T07:12:30;101693.84;;;15.19;40.95
52651;BME280;38537;47.226;39.702;2023-05-03T07:15:04;101664.00;;;15.04;41.98
52651;BME280;38537;47.226;39.702;2023-05-03T07:17:33;101677.38;;;15.12;41.99
52651;BME280;38537;47.226;39.702;2023-05-03T07:20:00;101672.97;;;15.06;41.21
52651;BME280;38537;47.226;39.702;2023-05-03T07:22:29;101681.03;;;15.13;41.20
52651;BME280;38537;47.226;39.702;2023-05-03T07:24:58;101686.13;;;15.11;40.99
52651;BME280;38537;47.226;39.702;2023-05-03T07:27:26;101696.31;;;15.06;41.39
52651;BME280;38537;47.226;39.702;2023-05-03T07:29:57;101677.59;;;14.97;41.95
52651;BME280;38537;47.226;39.702;2023-05-03T07:32:24;101705.69;;;15.16;41.82
52651;BME280;38537;47.226;39.702;2023-05-03T07:34:52;101688.63;;;15.12;41.84
52651;BME280;38537;47.226;39.702;2023-05-03T07:37:20;101697.75;;;15.04;40.97
52651;BME280;38537;47.226;39.702;2023-05-03T07:39:47;101696.31;;;15.06;41.60
52651;BME280;38537;47.226;39.702;2023-05-03T07:42:15;101691.13;;;15.14;41.61
52651;BME280;38537;47.226;39.702;2023-05-03T07:44:42;101692.34;;;15.07;41.19
52651;BME280;38537;47.226;39.702;2023-05-03T07:47:09;101705.69;;;15.16;41.31
52651;BME280;38537;47.226;39.702;2023-05-03T07:49:37;101683.00;;;15.12;41.42
52651;BME280;38537;47.226;39.702;2023-05-03T07:52:04;101697.03;;;15.31;42.78
52651;BME280;38537;47.226;39.702;2023-05-03T07:54:31;101701.84;;;15.44;42.13
52651;BME280;38537;47.226;39.702;2023-05-03T07:56:59;101686.03;;;15.48;42.28
52651;BME280;38537;47.226;39.702;2023-05-03T07:59:27;101699.56;;;15.46;40.91
52651;BME280;38537;47.226;39.702;2023-05-03T08:01:54;101690.38;;;15.40;41.30
52651;BME280;38537;47.226;39.702;2023-05-03T08:04:21;101688.50;;;15.36;40.61
52651;BME280;38537;47.226;39.702;2023-05-03T08:06:50;101680.38;;;15.34;40.76
52651;BME280;38537;47.226;39.702;2023-05-03T08:09:18;101688.91;;;15.43;40.25
52651;BME280;38537;47.226;39.702;2023-05-03T08:11:46;101676.09;;;15.37;40.74
52651;BME280;38537;47.226;39.702;2023-05-03T08:14:14;101689.75;;;15.43;40.40
52651;BME280;38537;47.226;39.702;2023-05-03T08:16:41;101698.94;;;15.49;39.78
52651;BME280;38537;47.226;39.702;2023-05-03T08:19:09;101696.22;;;15.44;39.62
52651;BME280;38537;47.226;39.702;2023-05-03T08:21:36;101674.94;;;15.38;38.98
52651;BME280;38537;47.226;39.702;2023-05-03T08:24:03;101683.81;;;15.45;39.53
52651;BME280;38537;47.226;39.702;2023-05-03T08:26:35;101678.88;;;15.56;39.97
52651;BME280;38537;47.226;39.702;2023-05-03T08:29:03;101678.47;;;15.62;40.40
52651;BME280;38537;47.226;39.702;2023-05-03T08:31:30;101669.81;;;15.72;40.48
52651;BME280;38537;47.226;39.702;2023-05-03T08:33:58;101681.53;;;15.93;40.79
52651;BME280;38537;47.226;39.702;2023-05-03T08:36:25;101695.41;;;15.90;39.58
52651;BME280;38537;47.226;39.702;2023-05-03T08:38:53;101681.72;;;15.69;39.45
52651;BME280;38537;47.226;39.702;2023-05-03T08:41:21;101686.91;;;15.62;39.30
52651;BME280;38537;47.226;39.702;2023-05-03T08:43:57;101692.00;;;15.60;39.31
52651;BME280;38537;47.226;39.702;2023-05-03T08:46:26;101691.69;;;15.62;39.10
52651;BME280;38537;47.226;39.702;2023-05-03T08:48:54;101685.97;;;15.67;39.54
52651;BME280;38537;47.226;39.702;2023-05-03T08:51:22;101665.84;;;15.60;39.47
52651;BME280;38537;47.226;39.702;2023-05-03T08:53:50;101674.97;;;15.52;39.01
52651;BME280;38537;47.226;39.702;2023-05-03T08:56:39;101652.41;;;15.57;38.89
52651;BME280;38537;47.226;39.702;2023-05-03T08:59:09;101684.75;;;15.73;39.47
52651;BME280;38537;47.226;39.702;2023-05-03T09:01:40;101676.91;;;15.84;39.32
52651;BME280;38537;47.226;39.702;2023-05-03T09:04:09;101678.06;;;15.83;39.00
52651;BME280;38537;47.226;39.702;2023-05-03T09:06:37;101663.38;;;15.86;39.48
52651;BME280;38537;47.226;39.702;2023-05-03T09:09:07;101674.44;;;15.96;38.87
52651;BME280;38537;47.226;39.702;2023-05-03T09:11:37;101658.06;;;15.98;38.94
52651;BME280;38537;47.226;39.702;2023-05-03T09:16:37;101666.81;;;16.10;39.09
52651;BME280;38537;47.226;39.702;2023-05-03T09:19:06;101665.25;;;16.04;38.07
52651;BME280;38537;47.226;39.702;2023-05-03T09:21:39;101667.66;;;15.97;38.15
52651;BME280;38537;47.226;39.702;2023-05-03T09:24:15;101656.38;;;15.97;38.61
52651;BME280;38537;47.226;39.702;2023-05-03T09:26:44;101630.59;;;15.90;38.61
52651;BME280;38537;47.226;39.702;2023-05-03T09:29:30;101629.34;;;16.09;39.19
52651;BME280;38537;47.226;39.702;2023-05-03T09:32:02;101653.75;;;16.28;38.58
52651;BME280;38537;47.226;39.702;2023-05-03T09:34:34;101640.91;;;16.35;39.13
52651;BME280;38537;47.226;39.702;2023-05-03T09:37:03;101640.16;;;16.43;39.64
52651;BME280;38537;47.226;39.702;2023-05-03T09:39:31;101635.09;;;16.54;40.49
52651;BME280;38537;47.226;39.702;2023-05-03T09:42:12;101627.59;;;16.63;39.55
52651;BME280;38537;47.226;39.702;2023-05-03T09:44:56;101616.94;;;16.60;39.10
52651;BME280;38537;47.226;39.702;2023-05-03T09:47:24;101632.41;;;16.49;38.34
52651;BME280;38537;47.226;39.702;2023-05-03T09:49:56;101612.88;;;16.53;38.85
52651;BME280;38537;47.226;39.702;2023-05-03T09:52:24;101634.47;;;16.57;38.49
52651;BME280;38537;47.226;39.702;2023-05-03T09:54:55;101625.84;;;16.40;37.96
52651;BME280;38537;47.226;39.702;2023-05-03T09:57:23;101634.78;;;16.56;38.35
52651;BME280;38537;47.226;39.702;2023-05-03T09:59:50;101623.41;;;16.61;38.40
52651;BME280;38537;47.226;39.702;2023-05-03T10:02:18;101621.09;;;16.63;38.97
52651;BME280;38537;47.226;39.702;2023-05-03T10:04:50;101640.56;;;16.64;38.21
52651;BME280;38537;47.226;39.702;2023-05-03T10:07:24;101649.78;;;16.42;37.87
52651;BME280;38537;47.226;39.702;2023-05-03T10:09:55;101629.19;;;16.42;38.09
52651;BME280;38537;47.226;39.702;2023-05-03T10:12:25;101625.28;;;16.52;38.29
52651;BME280;38537;47.226;39.702;2023-05-03T10:14:53;101637.59;;;16.56;38.38
52651;BME280;38537;47.226;39.702;2023-05-03T10:17:28;101627.69;;;16.58;38.82
52651;BME280;38537;47.226;39.702;2023-05-03T10:20:24;101616.53;;;16.67;38.74
52651;BME280;38537;47.226;39.702;2023-05-03T10:23:13;101626.78;;;16.85;38.12
52651;BME280;38537;47.226;39.702;2023-05-03T10:28:33;101628.47;;;16.86;38.74
52651;BME280;38537;47.226;39.702;2023-05-03T10:31:01;101609.97;;;16.80;38.85
52651;BME280;38537;47.226;39.702;2023-05-03T10:33:32;101633.31;;;16.94;38.59
52651;BME280;38537;47.226;39.702;2023-05-03T10:36:06;101629.97;;;16.92;38.20
52651;BME280;38537;47.226;39.702;2023-05-03T10:38:36;101629.34;;;16.95;38.71
52651;BME280;38537;47.226;39.702;2023-05-03T10:41:04;101627.44;;;17.04;38.73
52651;BME280;38537;47.226;39.702;2023-05-03T10:46:02;101634.16;;;16.95;37.52
52651;BME280;38537;47.226;39.702;2023-05-03T10:48:32;101623.38;;;16.74;37.89
52651;BME280;38537;47.226;39.702;2023-05-03T10:51:33;101624.91;;;16.81;38.12
52651;BME280;38537;47.226;39.702;2023-05-03T10:54:03;101604.97;;;16.77;38.43
52651;BME280;38537;47.226;39.702;2023-05-03T10:56:31;101612.09;;;16.74;38.39
52651;BME280;38537;47.226;39.702;2023-05-03T10:58:58;101598.94;;;16.70;38.98
52651;BME280;38537;47.226;39.702;2023-05-03T11:01:26;101599.44;;;16.72;39.24
52651;BME280;38537;47.226;39.702;2023-05-03T11:04:21;101604.75;;;16.87;39.40
52651;BME280;38537;47.226;39.702;2023-05-03T11:06:46;101609.47;;;17.00;39.54
52651;BME280;38537;47.226;39.702;2023-05-03T11:09:15;101599.84;;;17.01;39.29
52651;BME280;38537;47.226;39.702;2023-05-03T11:11:43;101602.78;;;16.96;38.80
52651;BME280;38537;47.226;39.702;2023-05-03T11:14:10;101600.28;;;16.95;38.83
52651;BME280;38537;47.226;39.702;2023-05-03T11:16:39;101595.34;;;17.00;39.11
52651;BME280;38537;47.226;39.702;2023-05-03T11:19:14;101595.59;;;17.12;38.72
52651;BME280;38537;47.226;39.702;2023-05-03T11:21:42;101598.28;;;17.18;38.73
52651;BME280;38537;47.226;39.702;2023-05-03T11:24:10;101587.44;;;17.11;38.82
52651;BME280;38537;47.226;39.702;2023-05-03T11:26:38;101585.19;;;17.22;39.38
52651;BME280;38537;47.226;39.702;2023-05-03T11:29:09;101581.22;;;17.23;38.87
52651;BME280;38537;47.226;39.702;2023-05-03T11:31:36;101567.84;;;17.06;38.85
52651;BME280;38537;47.226;39.702;2023-05-03T11:34:04;101571.34;;;17.11;39.06
52651;BME280;38537;47.226;39.702;2023-05-03T11:36:33;101577.06;;;17.20;39.40
52651;BME280;38537;47.226;39.702;2023-05-03T11:39:00;101575.91;;;17.21;39.31
52651;BME280;38537;47.226;39.702;2023-05-03T11:41:29;101573.97;;;17.30;39.42
52651;BME280;38537;47.226;39.702;2023-05-03T11:43:56;101569.28;;;17.26;39.27
52651;BME280;38537;47.226;39.702;2023-05-03T11:46:41;101574.00;;;17.39;39.59
52651;BME280;38537;47.226;39.702;2023-05-03T11:49:09;101582.97;;;17.41;39.32
52651;BME280;38537;47.226;39.702;2023-05-03T11:51:37;101573.91;;;17.22;39.13
52651;BME280;38537;47.226;39.702;2023-05-03T11:54:04;101584.56;;;17.25;39.35
52651;BME280;38537;47.226;39.702;2023-05-03T11:56:54;101587.56;;;17.28;39.23
52651;BME280;38537;47.226;39.702;2023-05-03T11:59:38;101577.78;;;17.34;39.30
52651;BME280;38537;47.226;39.702;2023-05-03T12:02:08;101575.78;;;17.35;39.32
52651;BME280;38537;47.226;39.702;2023-05-03T12:04:37;101580.28;;;17.36;39.48
52651;BME280;38537;47.226;39.702;2023-05-03T12:07:09;101571.81;;;17.36;39.48
52651;BME280;38537;47.226;39.702;2023-05-03T12:09:39;101532.44;;;17.31;39.64
52651;BME280;38537;47.226;39.702;2023-05-03T12:12:18;101572.84;;;17.40;38.81
52651;BME280;38537;47.226;39.702;2023-05-03T12:14:59;101561.34;;;17.36;39.13
52651;BME280;38537;47.226;39.702;2023-05-03T12:17:40;101556.78;;;17.49;39.39
52651;BME280;38537;47.226;39.702;2023-05-03T12:20:16;101544.66;;;17.48;39.44
52651;BME280;38537;47.226;39.702;2023-05-03T12:22:50;101549.31;;;17.53;39.41
52651;BME280;38537;47.226;39.702;2023-05-03T12:25:22;101537.34;;;17.56;39.29
52651;BME280;38537;47.226;39.702;2023-05-03T12:27:53;101535.44;;;17.65;39.37
52651;BME280;38537;47.226;39.702;2023-05-03T12:30:41;101548.06;;;17.76;38.73
52651;BME280;38537;47.226;39.702;2023-05-03T12:33:11;101563.13;;;17.63;38.80
52651;BME280;38537;47.226;39.702;2023-05-03T12:35:41;101544.16;;;17.55;38.84
52651;BME280;38537;47.226;39.702;2023-05-03T12:38:13;101534.53;;;17.56;38.95
52651;BME280;38537;47.226;39.702;2023-05-03T12:40:44;101539.59;;;17.68;39.06
52651;BME280;38537;47.226;39.702;2023-05-03T12:43:13;101523.47;;;17.68;39.19
52651;BME280;38537;47.226;39.702;2023-05-03T12:45:40;101530.78;;;17.78;39.05
52651;BME280;38537;47.226;39.702;2023-05-03T12:48:15;101525.97;;;17.70;38.73
52651;BME280;38537;47.226;39.702;2023-05-03T12:50:43;101530.97;;;17.81;38.49
52651;BME280;38537;47.226;39.702;2023-05-03T12:53:11;101531.66;;;17.87;38.58
52651;BME280;38537;47.226;39.702;2023-05-03T12:55:43;101520.19;;;17.84;38.55
52651;BME280;38537;47.226;39.702;2023-05-03T12:58:16;101508.88;;;17.84;38.79
52651;BME280;38537;47.226;39.702;2023-05-03T13:00:47;101503.72;;;17.86;38.54
52651;BME280;38537;47.226;39.702;2023-05-03T13:03:34;101517.19;;;17.89;38.70
52651;BME280;38537;47.226;39.702;2023-05-03T13:06:10;101496.25;;;17.90;38.58
52651;BME280;38537;47.226;39.702;2023-05-03T13:08:40;101511.91;;;17.96;38.89
52651;BME280;38537;47.226;39.702;2023-05-03T13:11:15;101520.03;;;17.97;38.01